Time;durP1;ratioP1;P1;durP2;ratioP2;P2;SDS_P1;SDS_P2;PMS_P1;PMS_P2;Temp;Humidity;BMP_temperature;BMP_pressure;BME280_temperature;BME280_humidity;BME280_pressure;Samples;Min_cycle;Max_cycle;Signal;HPM_P1;HPM_P2
2023/05/03 00:00:22;;;;;;;6.17;4.43;;;;;;;11.35;64.23;100095.44;7462831;39;20250;31
2023/05/03 00:05:56;;;;;;;10.00;4.63;;;;;;;11.27;64.50;100096.19;7463244;38;20306;31
2023/05/03 00:11:16;;;;;;;9.10;4.57;;;;;;;11.24;64.01;100091.06;7438994;39;20261;31
2023/05/03 00:16:33;;;;;;;5.80;4.30;;;;;;;11.22;63.64;100090.38;7417447;39;20266;31
2023/05/03 00:27:12;;;;;;;8.97;4.70;;;;;;;11.06;64.59;100082.03;7488231;38;21169;31
2023/05/03 00:32:44;;;;;;;8.60;4.50;;;;;;;11.00;64.66;100088.06;7463130;39;20273;31
2023/05/03 00:38:19;;;;;;;7.73;4.60;;;;;;;11.10;64.15;100072.69;7415471;39;20333;31
2023/05/03 00:43:52;;;;;;;6.00;4.00;;;;;;;11.17;63.80;100074.63;7151212;39;20234;31
2023/05/03 00:49:27;;;;;;;8.75;4.35;;;;;;;11.19;63.95;100063.66;7404372;39;20319;31
2023/05/03 00:54:59;;;;;;;5.83;4.30;;;;;;;11.15;64.11;100068.53;7340617;39;20252;31
2023/05/03 01:00:30;;;;;;;5.90;4.25;;;;;;;11.13;64.41;100056.19;7402960;39;20321;31
2023/05/03 01:06:03;;;;;;;6.10;4.40;;;;;;;11.11;64.17;100068.97;7418949;39;20341;31
2023/05/03 01:11:38;;;;;;;11.17;5.27;;;;;;;10.99;64.30;100070.16;7375877;39;20289;31
2023/05/03 01:22:16;;;;;;;10.20;5.07;;;;;;;10.65;64.87;100073.41;7395849;39;20334;31
2023/05/03 01:33:02;;;;;;;6.70;4.90;;;;;;;10.45;65.40;100060.94;7472147;38;20759;31
2023/05/03 01:38:34;;;;;;;6.83;4.93;;;;;;;10.41;65.12;100054.13;7512457;38;21373;31
2023/05/03 01:44:06;;;;;;;6.57;5.00;;;;;;;10.34;65.20;100053.03;7419279;39;20261;31
2023/05/03 01:49:42;;;;;;;6.97;4.67;;;;;;;10.34;65.35;100051.19;7397560;39;20262;31
2023/05/03 01:55:17;;;;;;;8.10;4.70;;;;;;;10.25;65.50;100049.34;7362525;39;20247;31
2023/05/03 02:06:50;;;;;;;11.63;5.10;;;;;;;10.09;65.68;100051.72;7398407;39;20262;31
2023/05/03 02:12:22;;;;;;;7.90;4.55;;;;;;;10.06;65.36;100061.94;7328010;39;20303;31
2023/05/03 02:17:54;;;;;;;9.07;4.63;;;;;;;9.94;65.90;100066.63;7374116;39;20243;31
2023/05/03 02:23:27;;;;;;;7.67;4.87;;;;;;;9.83;66.08;100053.28;7463741;39;20317;31
2023/05/03 02:29:02;;;;;;;10.80;5.30;;;;;;;9.79;65.88;100068.00;7432109;39;21112;31
2023/05/03 02:34:20;;;;;;;10.20;5.67;;;;;;;9.71;65.81;100067.87;7398994;39;20247;31
2023/05/03 02:39:57;;;;;;;9.43;5.03;;;;;;;9.68;66.81;100063.63;7398021;39;21800;31
2023/05/03 02:45:14;;;;;;;9.07;5.40;;;;;;;9.77;66.19;100065.50;7396066;39;20259;31
2023/05/03 02:50:49;;;;;;;8.48;5.08;;;;;;;9.74;66.37;100073.00;7445047;38;20239;31
2023/05/03 02:56:25;;;;;;;7.93;4.83;;;;;;;9.70;66.55;100068.84;7398653;39;20247;31
2023/05/03 03:01:43;;;;;;;11.10;5.40;;;;;;;9.65;67.01;100069.31;7439257;39;20246;31
2023/05/03 03:07:03;;;;;;;8.67;4.73;;;;;;;9.47;67.19;100063.75;7439237;39;20266;31
2023/05/03 03:12:33;;;;;;;9.20;5.17;;;;;;;9.44;67.95;100063.16;7453935;39;20277;31
2023/05/03 03:22:55;;;;;;;6.63;4.80;;;;;;;9.50;67.72;100057.22;7420799;39;21143;31
2023/05/03 03:33:30;;;;;;;8.87;4.93;;;;;;;9.34;68.50;100055.06;7494783;38;20363;31
2023/05/03 03:38:51;;;;;;;9.73;4.60;;;;;;;9.29;68.14;100062.69;7378704;39;20288;31
2023/05/03 03:44:24;;;;;;;15.07;4.87;;;;;;;9.34;68.20;100054.22;7399305;39;20334;31
2023/05/03 03:49:56;;;;;;;7.80;4.43;;;;;;;9.19;68.46;100053.75;7358736;39;20251;31
2023/05/03 03:55:32;;;;;;;7.00;4.65;;;;;;;9.12;69.08;100057.97;7344249;39;20248;31
2023/05/03 04:01:04;;;;;;;11.53;4.77;;;;;;;9.17;68.55;100052.19;7372489;39;20386;31
2023/05/03 04:06:37;;;;;;;6.63;4.63;;;;;;;9.20;68.38;100049.22;7374635;39;20255;31
2023/05/03 04:11:54;;;;;;;10.47;4.80;;;;;;;9.11;68.46;100060.78;7400564;39;20282;31
2023/05/03 04:22:32;;;;;;;6.45;4.70;;;;;;;9.02;69.14;100066.00;7463124;39;20258;31
2023/05/03 04:27:50;;;;;;;6.30;4.33;;;;;;;9.02;68.70;100059.78;7398840;39;20255;31
2023/05/03 04:38:30;;;;;;;7.57;4.87;;;;;;;8.80;69.53;100073.41;7378924;39;20250;31
2023/05/03 04:44:02;;;;;;;6.97;4.73;;;;;;;8.72;69.33;100071.37;7380961;39;20251;31
2023/05/03 04:49:20;;;;;;;10.75;4.95;;;;;;;8.78;69.49;100065.44;7427324;38;20249;31
2023/05/03 04:54:56;;;;;;;8.26;4.98;;;;;;;8.81;70.16;100070.59;7460968;39;20317;31
2023/05/03 05:00:26;;;;;;;9.20;5.20;;;;;;;8.81;69.92;100072.41;7376989;39;20478;31
2023/05/03 05:06:01;;;;;;;9.10;4.70;;;;;;;8.83;69.67;100073.97;7377860;39;20254;31
2023/05/03 05:11:34;;;;;;;8.80;4.67;;;;;;;8.78;70.48;100067.28;7389430;39;20329;31
2023/05/03 05:17:03;;;;;;;9.67;4.90;;;;;;;8.80;69.96;100076.09;7318850;39;20259;31
2023/05/03 05:27:41;;;;;;;5.64;4.36;;;;;;;8.85;69.98;100074.69;7404655;39;20269;31
2023/05/03 05:38:02;;;;;;;8.23;4.80;;;;;;;9.09;69.48;100078.88;7419268;38;20274;31
2023/05/03 05:48:38;;;;;;;11.68;5.65;;;;;;;9.50;69.91;100078.75;7457793;39;21115;31
2023/05/03 05:59:14;;;;;;;7.60;4.90;;;;;;;9.69;68.59;100086.03;7399217;39;21089;31
2023/05/03 06:04:47;;;;;;;8.63;4.70;;;;;;;9.62;69.05;100090.25;7378195;39;20270;31
2023/05/03 06:10:05;;;;;;;8.50;4.63;;;;;;;9.73;68.61;100087.44;7386032;39;20404;31
2023/05/03 06:15:21;;;;;;;11.00;5.30;;;;;;;9.82;68.78;100084.75;7462117;39;21206;31
2023/05/03 06:20:55;;;;;;;7.78;4.97;;;;;;;10.02;68.63;100076.69;7461599;38;21169;31
2023/05/03 06:26:27;;;;;;;7.90;4.50;;;;;;;10.12;68.65;100073.00;7420396;39;20251;31
2023/05/03 06:31:47;;;;;;;9.83;5.40;;;;;;;10.11;68.15;100078.53;7400697;39;20259;31
2023/05/03 06:37:23;;;;;;;8.40;4.70;;;;;;;10.12;68.72;100083.78;7400232;39;20262;31
2023/05/03 06:42:55;;;;;;;9.20;5.20;;;;;;;10.23;68.46;100091.75;7406697;39;20350;31
2023/05/03 06:53:32;;;;;;;14.34;5.46;;;;;;;10.49;68.15;100092.00;7438367;39;21061;31
2023/05/03 06:59:04;;;;;;;7.50;5.15;;;;;;;10.52;67.68;100093.56;7396072;39;20308;31
2023/05/03 07:04:36;;;;;;;9.13;5.33;;;;;;;10.74;67.54;100094.09;7396516;39;20393;31
2023/05/03 07:10:10;;;;;;;8.30;5.50;;;;;;;10.86;67.38;100086.66;7354896;39;20270;31
2023/05/03 07:15:27;;;;;;;8.33;5.20;;;;;;;10.98;67.46;100084.63;7386441;39;20273;31
2023/05/03 07:20:46;;;;;;;8.90;5.30;;;;;;;11.03;67.11;100074.25;7401298;39;20513;31
2023/05/03 07:31:26;;;;;;;7.93;4.87;;;;;;;11.23;67.10;100081.28;7508189;38;20813;31
2023/05/03 07:41:51;;;;;;;8.15;5.55;;;;;;;11.36;67.26;100076.41;7511238;38;20273;31
2023/05/03 07:52:28;;;;;;;10.63;5.73;;;;;;;11.63;66.40;100075.50;7437119;39;20272;31
2023/05/03 07:58:03;;;;;;;10.70;5.40;;;;;;;11.74;66.10;100073.50;7212577;39;20241;31
2023/05/03 08:03:20;;;;;;;8.30;4.97;;;;;;;11.89;66.22;100079.19;7401092;39;20339;31
2023/05/03 08:08:51;;;;;;;8.05;5.10;;;;;;;12.18;65.69;100069.03;7460935;39;20239;31
2023/05/03 08:14:26;;;;;;;7.70;5.30;;;;;;;12.46;64.76;100074.31;7397225;39;20389;31
2023/05/03 08:19:44;;;;;;;8.97;5.50;;;;;;;13.04;64.28;100072.66;7394635;39;20238;31
2023/05/03 08:25:17;;;;;;;11.57;5.77;;;;;;;13.43;62.77;100067.63;7429816;39;20278;31
2023/05/03 08:30:52;;;;;;;7.90;5.30;;;;;;;13.59;61.72;100068.72;7395717;39;20337;31
2023/05/03 08:36:10;;;;;;;8.20;5.17;;;;;;;13.91;61.96;100075.03;7417344;39;20258;31
2023/05/03 08:41:46;;;;;;;11.40;6.30;;;;;;;14.03;61.08;100077.47;7485191;39;20242;31
2023/05/03 08:47:21;;;;;;;8.10;5.60;;;;;;;14.23;60.72;100068.81;7451606;39;21126;31
2023/05/03 08:52:53;;;;;;;9.27;5.80;;;;;;;14.50;61.10;100070.38;7441763;39;20503;31
2023/05/03 08:58:27;;;;;;;10.10;6.30;;;;;;;14.65;60.19;100065.13;7418459;39;20428;31
2023/05/03 09:04:03;;;;;;;11.63;6.30;;;;;;;14.90;60.03;100064.06;7418753;39;20274;31
2023/05/03 09:09:45;;;;;;;10.40;6.50;;;;;;;15.02;59.67;100070.81;7418329;39;20370;31
2023/05/03 09:15:22;;;;;;;10.20;6.50;;;;;;;15.22;59.29;100074.00;7460880;39;20257;31
2023/05/03 09:20:54;;;;;;;8.77;6.13;;;;;;;15.43;58.95;100059.81;7400707;39;20258;31
2023/05/03 09:26:26;;;;;;;11.10;6.50;;;;;;;15.47;59.60;100061.16;7420420;39;20333;31
2023/05/03 09:32:04;;;;;;;7.77;5.53;;;;;;;15.68;58.43;100061.41;7399485;39;20415;31
2023/05/03 09:37:34;;;;;;;10.37;6.10;;;;;;;15.80;59.19;100051.00;7426269;39;20242;31
2023/05/03 09:43:24;;;;;;;10.80;6.40;;;;;;;15.92;58.85;100052.28;7379505;39;20260;31
2023/05/03 09:48:57;;;;;;;11.70;6.17;;;;;;;16.08;58.35;100054.88;7419710;39;20302;31
2023/05/03 09:54:30;;;;;;;11.47;6.77;;;;;;;16.34;57.81;100040.91;7440136;39;20254;31
2023/05/03 10:00:03;;;;;;;8.73;7.30;;;;;;;16.42;56.60;100049.00;7443899;39;20238;31
2023/05/03 10:05:40;;;;;;;8.47;6.77;;;;;;;16.49;56.62;100039.09;7484821;39;20252;31
2023/05/03 10:11:12;;;;;;;13.67;6.63;;;;;;;16.64;57.15;100037.25;7466192;39;20886;31
2023/05/03 10:16:48;;;;;;;7.77;6.40;;;;;;;16.92;56.32;100035.59;7457766;39;21028;31
2023/05/03 10:22:24;;;;;;;8.70;7.00;;;;;;;17.04;56.05;100025.09;7506084;38;21877;31
2023/05/03 10:28:05;;;;;;;9.73;6.87;;;;;;;17.22;56.06;100020.09;7485931;39;21854;31
2023/05/03 10:33:43;;;;;;;9.00;6.10;;;;;;;17.43;56.19;100028.34;7464594;39;21678;31
2023/05/03 10:39:19;;;;;;;9.47;6.90;;;;;;;17.66;55.48;100013.75;7490639;38;21847;31
2023/05/03 10:44:54;;;;;;;9.60;6.80;;;;;;;17.80;54.48;100008.28;7465844;38;20256;31
2023/05/03 10:50:42;;;;;;;9.50;7.40;;;;;;;17.85;54.82;100011.28;7488336;38;21653;31
2023/05/03 10:56:18;;;;;;;8.60;7.13;;;;;;;17.82;53.49;100011.62;7440113;39;20341;31
2023/05/03 11:01:50;;;;;;;11.00;7.00;;;;;;;17.89;53.49;100004.38;7439603;39;20283;31
2023/05/03 11:07:20;;;;;;;8.33;6.53;;;;;;;18.18;54.48;100000.66;7356564;39;20242;31
2023/05/03 11:12:53;;;;;;;9.80;6.70;;;;;;;18.18;53.01;99988.91;7375113;39;20245;31
2023/05/03 11:18:28;;;;;;;7.45;6.55;;;;;;;18.44;53.52;99981.78;7346563;39;20258;31
2023/05/03 11:24:00;;;;;;;10.20;7.20;;;;;;;18.37;52.29;99971.88;7419957;39;20243;31
2023/05/03 11:29:36;;;;;;;8.10;6.73;;;;;;;18.46;50.98;99963.34;7483215;38;20258;31
2023/05/03 11:35:09;;;;;;;9.40;7.35;;;;;;;18.54;52.76;99962.37;7488984;38;21884;31
2023/05/03 11:40:44;;;;;;;10.00;7.33;;;;;;;18.55;52.56;99960.47;7492858;38;22033;31
2023/05/03 11:46:17;;;;;;;8.50;6.70;;;;;;;18.77;50.71;99962.09;7460335;39;20324;31
2023/05/03 11:51:49;;;;;;;9.13;6.63;;;;;;;18.80;50.34;99956.22;7423038;39;20352;31
2023/05/03 11:57:25;;;;;;;9.35;7.15;;;;;;;18.80;51.31;99959.81;7376946;39;20363;31
2023/05/03 12:02:58;;;;;;;7.73;6.57;;;;;;;19.02;51.24;99952.38;7365288;39;20366;31
2023/05/03 12:08:30;;;;;;;9.80;6.47;;;;;;;19.15;49.46;99943.38;7358778;39;20252;31
2023/05/03 12:14:02;;;;;;;7.23;5.83;;;;;;;19.29;50.99;99940.50;7399419;39;20247;31
2023/05/03 12:24:38;;;;;;;8.67;5.77;;;;;;;19.65;50.47;99928.44;7458137;39;20258;31
2023/05/03 12:35:15;;;;;;;7.70;6.20;;;;;;;19.75;48.61;99916.03;7470510;38;21275;31
2023/05/03 12:40:50;;;;;;;8.00;6.35;;;;;;;19.83;48.40;99911.44;7459031;39;20277;31
2023/05/03 12:46:22;;;;;;;9.70;6.13;;;;;;;19.94;48.09;99897.97;7399133;39;20319;31
2023/05/03 12:51:39;;;;;;;9.73;5.97;;;;;;;20.03;49.00;99895.84;7377416;39;20248;31
2023/05/03 12:57:13;;;;;;;7.03;6.03;;;;;;;20.01;48.23;99887.84;7384885;39;20235;31
2023/05/03 13:02:30;;;;;;;6.10;5.30;;;;;;;20.13;48.08;99894.37;7377444;39;20254;31
2023/05/03 13:07:47;;;;;;;7.63;5.97;;;;;;;20.16;47.63;99882.16;7430141;39;20468;31
2023/05/03 13:13:18;;;;;;;9.60;5.75;;;;;;;20.31;46.96;99884.72;7452990;39;20252;31
2023/05/03 13:18:36;;;;;;;9.80;5.53;;;;;;;20.19;47.78;99876.25;7485014;39;20238;31
2023/05/03 13:24:08;;;;;;;9.17;6.50;;;;;;;20.27;46.68;99865.91;7418781;39;20258;31
2023/05/03 13:29:41;;;;;;;8.10;5.45;;;;;;;20.35;48.06;99859.44;7431623;39;20338;31
2023/05/03 13:35:13;;;;;;;8.13;5.47;;;;;;;20.54;47.37;99850.31;7355990;39;20459;31
2023/05/03 13:40:31;;;;;;;6.75;4.40;;;;;;;20.47;45.74;99844.03;7406048;39;20433;31
2023/05/03 13:46:04;;;;;;;8.00;5.40;;;;;;;20.55;47.08;99838.31;7397927;39;20432;31
2023/05/03 13:51:23;;;;;;;7.90;5.13;;;;;;;20.56;45.80;99823.56;7422406;39;20331;31
2023/05/03 13:56:40;;;;;;;7.00;4.60;;;;;;;20.52;46.47;99818.72;7401078;39;20332;31
2023/05/03 14:02:14;;;;;;;6.93;4.70;;;;;;;20.48;45.16;99810.09;7431752;39;21970;31
2023/05/03 14:12:36;;;;;;;7.23;4.10;;;;;;;20.46;45.31;99793.03;7439067;39;20274;31
2023/05/03 14:18:11;;;;;;;5.30;3.10;;;;;;;20.43;42.40;99804.44;7443153;39;20315;31
2023/05/03 14:23:43;;;;;;;5.05;3.40;;;;;;;20.41;42.68;99809.25;7211911;39;21289;31
2023/05/03 14:29:15;;;;;;;6.70;3.30;;;;;;;20.45;44.98;99799.56;7375716;39;20421;31
2023/05/03 14:34:46;;;;;;;5.27;3.43;;;;;;;20.54;44.39;99803.75;7342360;39;20342;31
2023/05/03 14:40:05;;;;;;;4.65;3.30;;;;;;;20.52;43.62;99796.81;7314338;39;20244;31
2023/05/03 14:45:22;;;;;;;6.65;4.25;;;;;;;20.58;44.22;99794.03;7336277;39;20422;31
2023/05/03 14:50:55;;;;;;;5.85;3.30;;;;;;;20.57;42.95;99786.91;7370945;39;20389;31
2023/05/03 14:56:12;;;;;;;6.80;3.33;;;;;;;20.53;43.83;99780.19;7348189;39;20357;31
2023/05/03 15:01:29;;;;;;;7.10;3.40;;;;;;;20.66;44.01;99782.00;7410164;39;20262;31
2023/05/03 15:07:14;;;;;;;5.15;3.90;;;;;;;20.81;43.25;99768.84;7396409;39;20319;31
2023/05/03 15:17:53;;;;;;;7.55;3.70;;;;;;;20.73;43.88;99771.84;7419527;39;20380;31
2023/05/03 15:23:28;;;;;;;6.40;3.10;;;;;;;20.66;42.52;99762.84;7445819;39;20344;31
2023/05/03 15:28:59;;;;;;;4.37;3.13;;;;;;;20.69;43.42;99751.44;7463731;38;20292;31
2023/05/03 15:39:36;;;;;;;5.90;3.50;;;;;;;20.65;44.41;99742.81;7408657;39;20347;31
2023/05/03 15:50:12;;;;;;;7.32;3.00;;;;;;;20.84;43.71;99742.94;7384612;39;20541;31
2023/05/03 16:00:50;;;;;;;3.80;2.80;;;;;;;20.88;44.43;99741.44;7437211;39;20272;31
2023/05/03 16:06:22;;;;;;;5.35;2.70;;;;;;;20.61;43.12;99740.72;7378000;39;20273;31
2023/05/03 16:11:39;;;;;;;5.65;3.05;;;;;;;20.46;42.81;99740.16;7436551;39;20242;31
2023/05/03 16:17:10;;;;;;;4.97;2.83;;;;;;;20.33;43.55;99727.34;7416701;39;20246;31
2023/05/03 16:22:41;;;;;;;4.90;2.80;;;;;;;20.24;44.72;99713.03;7419460;39;20278;31
2023/05/03 16:28:16;;;;;;;4.03;2.90;;;;;;;20.17;43.82;99720.44;7354733;39;20344;31
2023/05/03 16:33:52;;;;;;;5.13;3.30;;;;;;;20.21;44.58;99704.41;7316007;39;20255;31
2023/05/03 16:39:27;;;;;;;6.50;3.40;;;;;;;20.10;45.19;99705.06;7304440;39;20279;31
2023/05/03 16:44:45;;;;;;;5.03;3.27;;;;;;;20.07;46.74;99702.78;7318155;39;20262;31
2023/05/03 16:50:15;;;;;;;5.90;3.40;;;;;;;19.90;47.62;99707.03;7345980;39;20253;31
2023/05/03 16:55:35;;;;;;;5.17;3.20;;;;;;;19.77;47.54;99702.44;7329899;39;20280;31
2023/05/03 17:06:16;;;;;;;3.83;2.47;;;;;;;19.52;45.40;99709.66;7401625;39;20434;31
2023/05/03 17:16:53;;;;;;;3.20;2.77;;;;;;;19.41;45.96;99710.22;7398829;39;20271;31
2023/05/03 17:27:30;;;;;;;5.30;2.50;;;;;;;19.18;46.61;99710.63;7438593;39;20268;31
2023/05/03 17:37:55;;;;;;;3.10;2.20;;;;;;;19.01;45.72;99707.47;7506857;38;20265;31
2023/05/03 17:48:30;;;;;;;3.53;2.00;;;;;;;18.83;45.22;99721.75;7508977;38;20261;31
2023/05/03 17:54:02;;;;;;;3.95;2.20;;;;;;;18.75;46.33;99721.94;7420161;39;20243;31
2023/05/03 17:59:19;;;;;;;2.70;2.37;;;;;;;18.61;45.58;99717.47;7437670;39;20275;31
2023/05/03 18:04:50;;;;;;;3.95;2.00;;;;;;;18.51;45.43;99716.16;7442841;39;20353;31
2023/05/03 18:10:21;;;;;;;3.23;2.23;;;;;;;18.44;45.72;99722.44;7352712;39;20253;31
2023/05/03 18:15:51;;;;;;;2.90;2.30;;;;;;;18.33;46.21;99719.47;7366985;39;20262;31
2023/05/03 18:21:22;;;;;;;4.30;2.30;;;;;;;18.25;46.61;99720.50;7379154;39;21812;31
2023/05/03 18:26:40;;;;;;;2.67;1.93;;;;;;;18.18;46.26;99716.03;7368266;39;20244;31
2023/05/03 18:32:15;;;;;;;3.00;2.30;;;;;;;18.02;45.69;99712.59;7366635;39;21714;31
2023/05/03 18:37:45;;;;;;;2.40;1.90;;;;;;;17.87;47.30;99711.87;7434756;39;20444;31
2023/05/03 18:43:17;;;;;;;3.35;2.50;;;;;;;17.60;49.40;99718.19;7474000;39;20459;31
2023/05/03 18:48:49;;;;;;;4.65;2.20;;;;;;;17.42;50.88;99732.28;7429409;39;20370;31
2023/05/03 18:54:26;;;;;;;4.17;2.80;;;;;;;17.24;51.39;99736.56;7379539;39;20328;31
2023/05/03 18:59:43;;;;;;;4.20;2.70;;;;;;;17.11;52.52;99737.28;7401260;39;21193;31
2023/05/03 19:05:16;;;;;;;2.70;2.50;;;;;;;16.93;52.39;99748.63;7397218;39;21347;31
2023/05/03 19:10:49;;;;;;;5.65;2.70;;;;;;;16.77;53.97;99737.13;7359300;39;20461;31
2023/05/03 19:16:06;;;;;;;4.10;3.50;;;;;;;16.59;53.37;99749.28;7321626;39;20266;31
2023/05/03 19:21:41;;;;;;;5.10;3.00;;;;;;;16.38;54.19;99745.62;7351893;39;21940;31
2023/05/03 19:27:09;;;;;;;3.50;2.90;;;;;;;16.20;54.50;99751.47;7360745;39;20281;31
2023/05/03 19:32:27;;;;;;;3.50;2.70;;;;;;;16.08;55.12;99756.56;7363217;39;21300;31
2023/05/03 19:37:45;;;;;;;4.10;2.90;;;;;;;16.01;54.75;99755.63;7401621;39;21180;31
2023/05/03 19:43:17;;;;;;;3.90;3.10;;;;;;;15.89;54.73;99757.13;7421008;39;21201;31
2023/05/03 19:48:37;;;;;;;6.90;2.73;;;;;;;15.74;54.81;99753.56;7409403;39;21170;31
2023/05/03 19:54:15;;;;;;;4.40;2.90;;;;;;;15.59;54.65;99760.84;7442707;39;20302;31
2023/05/03 19:59:48;;;;;;;3.47;2.60;;;;;;;15.49;55.70;99760.25;7379019;39;20255;31
2023/05/03 20:05:06;;;;;;;4.47;3.00;;;;;;;15.43;55.21;99767.25;7440787;39;20401;31
2023/05/03 20:10:27;;;;;;;3.73;2.83;;;;;;;15.33;55.48;99772.94;7420653;39;20341;31
2023/05/03 20:15:58;;;;;;;4.93;2.77;;;;;;;15.20;55.14;99767.28;7422765;39;20362;31
2023/05/03 20:21:16;;;;;;;5.73;3.10;;;;;;;15.16;55.88;99779.53;7467716;39;20300;31
2023/05/03 20:26:31;;;;;;;3.47;2.90;;;;;;;15.09;56.41;99777.72;7440519;39;21769;31
2023/05/03 20:37:09;;;;;;;5.20;2.60;;;;;;;14.79;57.18;99768.56;7403101;39;20271;31
2023/05/03 20:47:45;;;;;;;4.37;2.83;;;;;;;14.69;56.49;99759.84;7429176;39;20262;31
2023/05/03 20:58:25;;;;;;;4.27;2.60;;;;;;;14.65;56.31;99761.22;7404865;39;20270;31
2023/05/03 21:03:46;;;;;;;4.30;2.60;;;;;;;14.55;56.22;99774.16;7402605;39;20321;31
2023/05/03 21:09:02;;;;;;;3.75;2.50;;;;;;;14.50;56.96;99757.56;7398434;39;20375;31
2023/05/03 21:14:38;;;;;;;3.10;2.80;;;;;;;14.32;57.56;99753.22;7425332;39;20247;31
2023/05/03 21:20:10;;;;;;;3.07;2.70;;;;;;;14.25;57.29;99756.84;7457631;39;20241;31
2023/05/03 21:25:45;;;;;;;2.90;2.30;;;;;;;14.18;57.02;99750.41;7496514;38;20229;31
2023/05/03 21:31:18;;;;;;;3.60;2.50;;;;;;;14.07;57.93;99740.81;7250671;39;20246;31
2023/05/03 21:41:44;;;;;;;3.03;2.40;;;;;;;13.91;57.42;99732.72;7488128;39;20242;31
2023/05/03 21:47:20;;;;;;;2.57;2.20;;;;;;;13.82;56.64;99731.91;7421447;39;20243;31
2023/05/03 21:52:41;;;;;;;4.27;3.20;;;;;;;13.72;57.04;99722.28;7402734;39;20240;31
2023/05/03 21:58:02;;;;;;;3.67;2.50;;;;;;;13.69;57.19;99728.06;7399885;39;20365;31
2023/05/03 22:03:37;;;;;;;3.70;2.45;;;;;;;13.59;56.80;99716.56;7380246;39;20247;31
2023/05/03 22:08:58;;;;;;;3.30;2.20;;;;;;;13.49;56.52;99712.19;7377801;39;20321;31
2023/05/03 22:14:32;;;;;;;3.40;2.10;;;;;;;13.47;57.38;99714.22;7475255;38;20287;31
2023/05/03 22:20:10;;;;;;;5.40;2.30;;;;;;;13.48;56.88;99710.50;7440587;39;20300;31
2023/05/03 22:25:28;;;;;;;3.00;2.60;;;;;;;13.43;57.13;99712.88;7423154;39;21750;31
2023/05/03 22:31:03;;;;;;;3.70;2.40;;;;;;;13.38;57.34;99701.72;7421044;39;20374;31
2023/05/03 22:36:35;;;;;;;4.27;2.70;;;;;;;13.26;57.85;99708.50;7428700;39;21235;31
2023/05/03 22:42:06;;;;;;;6.73;2.83;;;;;;;13.24;57.39;99713.25;7399750;39;20251;31
2023/05/03 22:47:42;;;;;;;3.63;2.50;;;;;;;13.23;57.52;99711.56;7339384;39;20268;31
2023/05/03 22:58:18;;;;;;;4.13;2.40;;;;;;;13.00;56.55;99697.84;7367517;39;20501;31
2023/05/03 23:08:40;;;;;;;3.87;2.47;;;;;;;13.08;56.72;99692.41;7432525;38;20253;31
2023/05/03 23:19:21;;;;;;;3.40;2.20;;;;;;;13.08;54.98;99691.56;7494489;39;21133;31
2023/05/03 23:30:00;;;;;;;4.70;2.40;;;;;;;13.10;55.27;99692.25;7460285;39;20260;31
2023/05/03 23:35:33;;;;;;;3.25;2.20;;;;;;;13.14;55.16;99696.34;7421695;39;20346;31
2023/05/03 23:40:50;;;;;;;4.10;2.60;;;;;;;13.19;54.33;99680.44;7390186;39;20282;31
2023/05/03 23:46:10;;;;;;;3.53;2.17;;;;;;;13.23;54.55;99683.66;7360021;39;20233;31
2023/05/03 23:51:44;;;;;;;10.00;2.50;;;;;;;13.13;53.59;99680.25;7310360;39;20244;31
2023/05/03 23:57:02;;;;;;;4.87;2.90;;;;;;;13.04;55.01;99687.50;7317768;39;21217;31
